Time;durP1;ratioP1;P1;durP2;ratioP2;P2;SDS_P1;SDS_P2;PMS_P1;PMS_P2;Temp;Humidity;BMP_temperature;BMP_pressure;BME280_temperature;BME280_humidity;BME280_pressure;Samples;Min_cycle;Max_cycle;Signal;HPM_P1;HPM_P2
2022/11/27 00:00:06;;;;;;;12.93;4.40;;;;;;;5.94;93.76;102475.31;5052683;28;20032;-68
2022/11/27 00:02:32;;;;;;;11.50;4.63;;;;;;;5.93;93.72;102470.94;5057063;28;20039;-68
2022/11/27 00:04:57;;;;;;;16.08;4.97;;;;;;;5.92;93.84;102471.72;5048448;28;20176;-68
2022/11/27 00:07:22;;;;;;;12.95;4.68;;;;;;;5.89;93.59;102464.66;5045604;28;20021;-68
2022/11/27 00:09:47;;;;;;;12.15;4.47;;;;;;;5.89;93.70;102467.25;5051455;28;20020;-69
2022/11/27 00:12:13;;;;;;;11.25;3.90;;;;;;;5.88;93.70;102469.72;5050354;28;20024;-69
2022/11/27 00:14:38;;;;;;;13.52;4.30;;;;;;;5.86;93.91;102471.31;5061411;28;20020;-68
2022/11/27 00:17:04;;;;;;;14.45;5.20;;;;;;;5.85;93.73;102474.69;5050753;28;20052;-69
2022/11/27 00:19:29;;;;;;;11.90;4.53;;;;;;;5.84;93.83;102467.72;5050096;28;20022;-69
2022/11/27 00:21:54;;;;;;;13.88;5.07;;;;;;;5.81;94.16;102465.81;5051253;28;20085;-69
2022/11/27 00:24:19;;;;;;;11.20;4.88;;;;;;;5.79;93.83;102461.31;5052984;28;20013;-69
2022/11/27 00:26:45;;;;;;;13.25;4.70;;;;;;;5.75;94.15;102455.06;5049656;28;20216;-68
2022/11/27 00:29:11;;;;;;;14.70;5.07;;;;;;;5.72;94.25;102447.97;5060688;28;20025;-69
2022/11/27 00:31:36;;;;;;;11.93;4.45;;;;;;;5.70;94.29;102449.53;5040114;28;20020;-68
2022/11/27 00:34:04;;;;;;;13.68;4.97;;;;;;;5.65;94.15;102445.75;5056096;28;20027;-69
2022/11/27 00:36:31;;;;;;;14.65;4.45;;;;;;;5.61;94.72;102441.16;5056470;28;20067;-68
2022/11/27 00:38:56;;;;;;;12.15;4.72;;;;;;;5.61;94.54;102442.84;5052404;28;20044;-68
2022/11/27 00:41:25;;;;;;;12.52;4.40;;;;;;;5.57;94.76;102436.56;5052889;28;20036;-68
2022/11/27 00:43:52;;;;;;;9.95;4.25;;;;;;;5.55;94.94;102432.97;5047750;28;20033;-68
2022/11/27 00:46:22;;;;;;;14.43;4.68;;;;;;;5.51;94.99;102437.03;5049896;28;20045;-68
2022/11/27 00:48:47;;;;;;;12.80;4.72;;;;;;;5.50;94.99;102434.34;5046869;28;20268;-68
2022/11/27 00:51:16;;;;;;;12.88;4.55;;;;;;;5.48;94.92;102433.34;5059596;28;20032;-68
2022/11/27 00:53:42;;;;;;;11.23;4.17;;;;;;;5.46;94.88;102429.75;5045903;28;20267;-69
2022/11/27 00:56:09;;;;;;;12.40;4.63;;;;;;;5.43;95.35;102433.03;5053784;28;20032;-68
2022/11/27 00:58:35;;;;;;;11.10;4.18;;;;;;;5.40;95.25;102423.38;5055079;28;20310;-68
2022/11/27 01:01:03;;;;;;;12.63;4.40;;;;;;;5.36;95.20;102420.47;5049046;28;20025;-68
2022/11/27 01:03:30;;;;;;;11.63;4.70;;;;;;;5.32;95.50;102413.28;5050335;28;20036;-68
2022/11/27 01:05:56;;;;;;;11.68;4.80;;;;;;;5.29;95.50;102403.63;5051011;28;20031;-68
2022/11/27 01:08:22;;;;;;;11.38;4.35;;;;;;;5.26;95.71;102410.25;5057932;28;20084;-68
2022/11/27 01:10:57;;;;;;;14.32;4.65;;;;;;;5.24;95.68;102402.38;5051174;28;20026;-68
2022/11/27 01:13:25;;;;;;;12.80;4.75;;;;;;;5.21;96.11;102404.75;5058235;28;20032;-68
2022/11/27 01:16:18;;;;;;;15.20;5.60;;;;;;;5.19;96.22;102398.59;5055292;28;20179;-68
2022/11/27 01:18:46;;;;;;;14.63;6.50;;;;;;;5.15;96.17;102394.00;5048814;28;20343;-68
2022/11/27 01:21:12;;;;;;;18.52;7.70;;;;;;;5.12;95.84;102386.03;5056209;28;20027;-68
2022/11/27 01:23:38;;;;;;;17.27;8.10;;;;;;;5.07;96.08;102390.88;5047078;28;20059;-69
2022/11/27 01:26:06;;;;;;;16.90;7.63;;;;;;;5.04;96.40;102398.41;5056799;28;20029;-68
2022/11/27 01:28:32;;;;;;;16.23;7.97;;;;;;;5.01;96.34;102398.16;5060199;28;20031;-68
2022/11/27 01:30:58;;;;;;;16.15;7.28;;;;;;;4.98;96.84;102396.28;5058813;28;20017;-69
2022/11/27 01:33:23;;;;;;;17.75;7.97;;;;;;;4.96;96.65;102396.97;5055090;28;20059;-68
2022/11/27 01:35:57;;;;;;;15.20;7.15;;;;;;;4.95;97.24;102390.88;5059880;28;20033;-68
2022/11/27 01:38:23;;;;;;;18.10;7.47;;;;;;;4.93;97.11;102382.13;5046920;28;20029;-68
2022/11/27 01:40:55;;;;;;;16.70;8.38;;;;;;;4.92;96.91;102370.00;5049240;28;20075;-68
2022/11/27 01:43:41;;;;;;;15.43;6.85;;;;;;;4.94;97.46;102362.34;5057933;28;20243;-68
2022/11/27 01:46:25;;;;;;;16.23;6.60;;;;;;;4.90;97.04;102361.25;5056158;28;20278;-68
2022/11/27 01:49:13;;;;;;;15.23;6.82;;;;;;;4.91;97.33;102362.13;5054167;28;20025;-68
2022/11/27 01:51:43;;;;;;;14.27;6.60;;;;;;;4.90;97.15;102358.69;5054283;28;20020;-68
2022/11/27 01:54:09;;;;;;;14.23;6.22;;;;;;;4.92;97.41;102370.00;5046647;28;20187;-68
2022/11/27 01:56:35;;;;;;;12.70;6.25;;;;;;;4.95;97.02;102353.81;5046129;28;20025;-68
2022/11/27 01:59:02;;;;;;;13.75;6.05;;;;;;;4.93;96.85;102334.75;5051228;28;20255;-68
2022/11/27 02:01:27;;;;;;;16.85;6.95;;;;;;;4.93;96.64;102327.91;5058795;28;20056;-68
2022/11/27 02:03:56;;;;;;;14.18;6.45;;;;;;;4.91;96.85;102320.81;5058263;28;20021;-68
2022/11/27 02:06:23;;;;;;;17.10;6.35;;;;;;;4.90;96.28;102319.03;5061513;28;20009;-68
2022/11/27 02:08:48;;;;;;;17.42;6.70;;;;;;;4.87;96.36;102319.72;5055480;28;20048;-68
2022/11/27 02:11:35;;;;;;;13.93;7.10;;;;;;;4.86;96.33;102313.63;5061371;28;20179;-68
2022/11/27 02:14:12;;;;;;;16.33;7.43;;;;;;;4.85;96.35;102313.53;5041865;28;20029;-68
2022/11/27 02:16:56;;;;;;;12.95;6.65;;;;;;;4.82;95.92;102306.50;5051437;28;20028;-68
2022/11/27 02:19:33;;;;;;;14.25;6.45;;;;;;;4.80;95.66;102296.84;5060571;28;20271;-68
2022/11/27 02:22:09;;;;;;;15.50;7.18;;;;;;;4.77;96.04;102299.22;5057082;28;20028;-69
2022/11/27 02:25:01;;;;;;;12.75;6.00;;;;;;;4.74;95.94;102292.13;5059432;28;20088;-68
2022/11/27 02:27:53;;;;;;;14.38;5.88;;;;;;;4.74;95.73;102288.66;5046067;28;20043;-65
2022/11/27 02:30:19;;;;;;;16.23;6.75;;;;;;;4.72;95.94;102283.38;5056195;28;20032;-65
2022/11/27 02:32:56;;;;;;;13.23;6.50;;;;;;;4.72;95.72;102285.94;5059896;28;20040;-65
2022/11/27 02:35:46;;;;;;;14.55;6.78;;;;;;;4.70;95.60;102290.13;5045045;28;20024;-65
2022/11/27 02:38:24;;;;;;;14.10;6.45;;;;;;;4.68;95.85;102287.44;5056204;28;20407;-65
2022/11/27 02:41:19;;;;;;;13.63;6.00;;;;;;;4.67;95.88;102285.63;5060057;28;20016;-65
2022/11/27 02:43:47;;;;;;;12.18;5.90;;;;;;;4.65;95.56;102276.88;5052039;28;21526;-65
2022/11/27 02:46:13;;;;;;;14.65;6.50;;;;;;;4.64;96.04;102269.03;5055039;28;20052;-65
2022/11/27 02:48:55;;;;;;;16.67;7.30;;;;;;;4.63;95.79;102273.28;5048901;28;20044;-65
2022/11/27 02:51:25;;;;;;;12.90;6.00;;;;;;;4.60;95.56;102273.06;5064193;28;21177;-65
2022/11/27 02:53:55;;;;;;;13.18;6.93;;;;;;;4.59;96.10;102276.47;5051350;28;20037;-65
2022/11/27 02:56:21;;;;;;;;;;;;;;;4.64;95.55;102276.78;5050897;28;20140;-65
2022/11/27 02:58:48;;;;;;;15.32;6.10;;;;;;;4.61;95.68;102277.44;5047662;28;19954;-65
2022/11/27 03:01:16;;;;;;;11.70;5.93;;;;;;;4.61;95.41;102282.63;5047122;28;20157;-64
2022/11/27 03:03:46;;;;;;;13.53;6.23;;;;;;;4.62;95.34;102281.84;5047374;28;20025;-65
2022/11/27 03:06:19;;;;;;;12.02;5.15;;;;;;;4.64;95.24;102288.00;5062056;28;20078;-65
2022/11/27 03:08:53;;;;;;;11.70;5.22;;;;;;;4.66;94.92;102289.03;5060938;28;20280;-65
2022/11/27 03:11:20;;;;;;;12.18;5.20;;;;;;;4.68;94.85;102292.59;5060071;28;20044;-65
2022/11/27 03:13:53;;;;;;;12.40;5.43;;;;;;;4.70;94.60;102290.13;5057619;28;20041;-65
2022/11/27 03:16:34;;;;;;;11.20;4.88;;;;;;;4.73;94.23;102281.69;5059431;28;20024;-65
2022/11/27 03:19:09;;;;;;;11.57;4.90;;;;;;;4.76;93.94;102275.03;5048238;28;20722;-65
2022/11/27 03:21:44;;;;;;;11.98;4.57;;;;;;;4.79;93.62;102269.22;5057076;28;20176;-65
2022/11/27 03:24:11;;;;;;;11.05;4.70;;;;;;;4.79;93.57;102266.63;5064967;28;20062;-65
2022/11/27 03:26:37;;;;;;;9.43;4.40;;;;;;;4.80;93.34;102260.69;5059404;28;20052;-68
2022/11/27 03:29:08;;;;;;;12.50;4.72;;;;;;;4.81;93.29;102263.38;5061106;28;20286;-68
2022/11/27 03:31:34;;;;;;;10.15;4.28;;;;;;;4.82;93.11;102265.16;5057842;28;20092;-69
2022/11/27 03:34:00;;;;;;;9.40;4.07;;;;;;;4.83;93.11;102263.47;5052528;28;20031;-68
2022/11/27 03:36:25;;;;;;;11.75;4.60;;;;;;;4.83;92.78;102258.31;5058267;28;20020;-68
2022/11/27 03:38:53;;;;;;;9.90;4.32;;;;;;;4.83;92.83;102266.06;5062243;28;20032;-68
2022/11/27 03:41:33;;;;;;;11.30;3.80;;;;;;;4.84;92.85;102267.84;5052102;28;20064;-68
2022/11/27 03:44:16;;;;;;;11.43;4.20;;;;;;;4.84;92.55;102255.84;5057555;28;20280;-68
2022/11/27 03:46:57;;;;;;;8.93;4.07;;;;;;;4.85;92.12;102233.47;5058504;28;20017;-68
2022/11/27 03:49:35;;;;;;;10.50;4.40;;;;;;;4.85;92.39;102233.47;5056185;28;20021;-68
2022/11/27 03:52:13;;;;;;;9.07;3.80;;;;;;;4.85;92.20;102229.22;5055247;28;20302;-68
2022/11/27 03:55:13;;;;;;;10.82;4.35;;;;;;;4.86;92.43;102235.28;5045938;28;20284;-68
2022/11/27 03:57:56;;;;;;;9.00;3.90;;;;;;;4.87;92.08;102232.78;5061462;28;20033;-68
2022/11/27 04:00:22;;;;;;;10.45;4.10;;;;;;;4.86;91.81;102238.75;5053143;28;20021;-68
2022/11/27 04:02:52;;;;;;;9.18;4.22;;;;;;;4.87;91.52;102232.78;5051453;28;20016;-68
2022/11/27 04:05:18;;;;;;;9.98;3.83;;;;;;;4.88;92.10;102239.75;5061949;28;20029;-68
2022/11/27 04:07:43;;;;;;;10.90;4.43;;;;;;;4.86;92.04;102227.53;5054387;28;20013;-68
2022/11/27 04:10:10;;;;;;;12.63;4.10;;;;;;;4.88;91.90;102238.84;5060913;28;20035;-68
2022/11/27 04:12:35;;;;;;;9.43;3.50;;;;;;;4.89;91.95;102245.81;5054838;28;20052;-68
2022/11/27 04:15:00;;;;;;;9.68;3.97;;;;;;;4.90;91.78;102247.63;5052743;28;20021;-68
2022/11/27 04:17:26;;;;;;;8.98;3.83;;;;;;;4.91;91.29;102241.66;5050554;28;20227;-68
2022/11/27 04:19:51;;;;;;;9.18;3.88;;;;;;;4.92;91.63;102246.03;5053367;28;20034;-68
2022/11/27 04:22:16;;;;;;;9.75;3.85;;;;;;;4.94;91.28;102254.78;5053565;28;20291;-68
2022/11/27 04:24:42;;;;;;;11.35;4.13;;;;;;;4.95;91.08;102256.56;5054551;28;20024;-68
2022/11/27 04:27:07;;;;;;;8.48;3.58;;;;;;;4.96;91.22;102253.19;5052492;28;20045;-68
2022/11/27 04:29:35;;;;;;;9.80;3.55;;;;;;;4.97;91.21;102260.16;5058757;28;20029;-68
2022/11/27 04:32:00;;;;;;;9.23;3.95;;;;;;;4.97;91.54;102248.94;5050957;28;20033;-68
2022/11/27 04:34:25;;;;;;;11.68;3.95;;;;;;;4.97;91.15;102236.91;5047531;28;20227;-68
2022/11/27 04:36:51;;;;;;;7.50;3.63;;;;;;;4.97;91.37;102246.38;5055737;28;20322;-68
2022/11/27 04:39:16;;;;;;;8.20;3.58;;;;;;;4.97;91.26;102241.19;5055249;28;20021;-68
2022/11/27 04:41:41;;;;;;;10.70;3.40;;;;;;;4.97;90.88;102243.78;5053236;28;20038;-68
2022/11/27 04:44:07;;;;;;;9.45;3.55;;;;;;;4.95;91.07;102251.41;5054020;28;20197;-68
2022/11/27 04:46:32;;;;;;;11.15;3.75;;;;;;;4.97;90.93;102249.84;5051412;28;20021;-68
2022/11/27 04:48:57;;;;;;;9.02;3.58;;;;;;;4.97;90.99;102241.19;5051198;28;20088;-68
2022/11/27 04:51:23;;;;;;;9.27;3.63;;;;;;;4.97;91.06;102243.78;5055558;28;20052;-68
2022/11/27 04:53:48;;;;;;;8.45;3.63;;;;;;;4.96;90.41;102232.53;5051993;28;20052;-68
2022/11/27 04:56:14;;;;;;;8.75;3.70;;;;;;;4.97;91.00;102228.28;5055380;28;20016;-68
2022/11/27 04:58:39;;;;;;;8.45;3.53;;;;;;;4.94;90.66;102216.03;5056333;28;20021;-68
2022/11/27 05:01:07;;;;;;;9.05;3.55;;;;;;;4.93;91.02;102210.78;5045789;28;20187;-68
2022/11/27 05:03:33;;;;;;;9.25;3.78;;;;;;;4.94;90.59;102205.72;5042544;28;20157;-68
2022/11/27 05:05:58;;;;;;;9.45;3.47;;;;;;;4.92;90.98;102209.88;5044917;28;20276;-68
2022/11/27 05:08:24;;;;;;;7.90;3.55;;;;;;;4.91;90.75;102202.00;5056050;28;20031;-68
2022/11/27 05:11:11;;;;;;;8.38;3.22;;;;;;;4.92;90.99;102199.53;5058169;28;20048;-68
2022/11/27 05:13:36;;;;;;;8.57;3.70;;;;;;;4.92;90.94;102196.94;5044852;28;20056;-68
2022/11/27 05:16:02;;;;;;;11.05;3.60;;;;;;;4.93;90.90;102195.28;5043482;28;20017;-68
2022/11/27 05:18:27;;;;;;;10.43;3.67;;;;;;;4.92;91.20;102194.38;5041564;28;20066;-68
2022/11/27 05:20:58;;;;;;;10.57;3.47;;;;;;;4.92;91.12;102190.91;5048058;28;20017;-68
2022/11/27 05:23:23;;;;;;;7.72;3.45;;;;;;;4.93;91.12;102183.25;5047345;28;20039;-68
2022/11/27 05:25:48;;;;;;;10.68;3.20;;;;;;;4.93;91.23;102185.84;5051286;28;20058;-68
2022/11/27 05:28:14;;;;;;;8.27;3.35;;;;;;;4.96;91.27;102182.56;5058149;28;20036;-68
2022/11/27 05:30:39;;;;;;;6.43;3.15;;;;;;;4.96;90.78;102180.00;5062073;28;20039;-68
2022/11/27 05:33:04;;;;;;;7.25;3.35;;;;;;;4.98;90.56;102174.16;5061352;28;20029;-68
2022/11/27 05:35:29;;;;;;;7.13;2.90;;;;;;;4.99;90.51;102182.78;5059471;28;20037;-68
2022/11/27 05:37:55;;;;;;;7.38;3.17;;;;;;;4.99;90.56;102175.91;5054351;28;20033;-68
2022/11/27 05:40:20;;;;;;;7.95;2.97;;;;;;;5.03;90.23;102177.91;5054397;28;20225;-68
2022/11/27 05:42:45;;;;;;;9.85;2.88;;;;;;;5.03;90.31;102172.75;5056138;28;20112;-68
2022/11/27 05:45:10;;;;;;;8.68;3.15;;;;;;;5.04;91.02;102179.72;5055907;28;20025;-68
2022/11/27 05:47:36;;;;;;;8.15;3.13;;;;;;;5.04;90.40;102174.56;5059171;28;20170;-68
2022/11/27 05:50:01;;;;;;;8.57;3.05;;;;;;;5.05;90.54;102170.25;5064563;28;20025;-68
2022/11/27 05:52:26;;;;;;;8.15;3.03;;;;;;;5.07;90.55;102167.78;5047089;28;20021;-68
2022/11/27 05:54:53;;;;;;;9.20;3.30;;;;;;;5.06;90.54;102164.31;5055136;28;20017;-68
2022/11/27 05:57:19;;;;;;;8.48;3.13;;;;;;;5.07;90.27;102150.63;5057486;28;20097;-68
2022/11/27 05:59:44;;;;;;;7.63;3.13;;;;;;;5.08;91.16;102146.34;5063445;28;20033;-68
2022/11/27 06:02:09;;;;;;;9.80;3.20;;;;;;;5.09;90.13;102151.59;5053753;28;20298;-68
2022/11/27 06:04:34;;;;;;;8.30;2.60;;;;;;;5.10;89.70;102143.06;5047993;28;20027;-68
2022/11/27 06:07:00;;;;;;;7.18;2.58;;;;;;;5.10;90.24;102143.06;5044820;28;20032;-68
2022/11/27 06:09:25;;;;;;;7.10;2.90;;;;;;;5.11;89.90;102143.94;5043758;28;20021;-68
2022/11/27 06:11:50;;;;;;;9.13;3.00;;;;;;;5.12;90.17;102150.91;5045197;28;20086;-68
2022/11/27 06:14:15;;;;;;;9.45;3.20;;;;;;;5.13;90.43;102144.97;5044534;28;20013;-68
2022/11/27 06:16:41;;;;;;;9.18;3.10;;;;;;;5.12;90.43;102136.31;5044903;28;20071;-68
2022/11/27 06:19:06;;;;;;;7.80;2.85;;;;;;;5.14;89.96;102134.75;5060197;28;20032;-68
2022/11/27 06:21:32;;;;;;;7.78;2.80;;;;;;;5.15;90.70;102135.63;5052788;28;20037;-68
2022/11/27 06:23:58;;;;;;;8.02;3.97;;;;;;;5.16;90.31;102127.97;5043341;28;20303;-68
2022/11/27 06:26:28;;;;;;;8.80;3.03;;;;;;;5.17;90.36;102137.53;5046384;28;20026;-65
2022/11/27 06:28:55;;;;;;;6.38;3.13;;;;;;;5.18;90.65;102135.81;5052374;28;21354;-65
2022/11/27 06:31:23;;;;;;;9.52;3.08;;;;;;;5.19;90.49;102127.28;5061997;28;20016;-65
2022/11/27 06:33:50;;;;;;;8.10;3.03;;;;;;;5.20;90.43;102126.50;5064619;28;20031;-65
2022/11/27 06:36:16;;;;;;;9.77;3.33;;;;;;;5.20;90.26;102135.13;5064209;28;20020;-65
2022/11/27 06:38:42;;;;;;;7.68;3.35;;;;;;;5.21;91.01;102131.75;5064530;28;20216;-65
2022/11/27 06:41:10;;;;;;;9.00;3.13;;;;;;;5.22;91.52;102130.06;5061499;28;20036;-65
2022/11/27 06:43:36;;;;;;;9.50;3.58;;;;;;;5.22;91.27;102138.69;5057082;28;20033;-65
2022/11/27 06:46:02;;;;;;;7.22;3.15;;;;;;;5.23;91.68;102140.50;5059298;28;20047;-65
2022/11/27 06:48:29;;;;;;;8.90;2.88;;;;;;;5.25;91.77;102140.59;5052430;28;20033;-65
2022/11/27 06:51:06;;;;;;;8.60;3.35;;;;;;;5.25;92.18;102132.84;5061984;28;20306;-65
2022/11/27 06:53:34;;;;;;;7.20;2.80;;;;;;;5.25;92.18;102129.38;5059119;28;20071;-65
2022/11/27 06:56:05;;;;;;;7.77;3.10;;;;;;;5.26;92.48;102128.56;5047724;28;20088;-65
2022/11/27 06:58:30;;;;;;;9.48;2.85;;;;;;;5.23;92.94;102125.00;5052988;28;20323;-68
2022/11/27 07:01:00;;;;;;;7.15;3.03;;;;;;;5.24;92.72;102123.28;5060296;28;20017;-68
2022/11/27 07:03:26;;;;;;;8.88;3.20;;;;;;;5.22;93.32;102115.44;5058853;28;20017;-68
2022/11/27 07:05:51;;;;;;;11.60;3.13;;;;;;;5.22;93.53;102111.97;5059499;28;20284;-69
2022/11/27 07:08:16;;;;;;;6.05;2.78;;;;;;;5.20;93.21;102109.28;5059983;28;20033;-68
2022/11/27 07:10:42;;;;;;;7.55;3.20;;;;;;;5.19;93.86;102107.50;5061247;28;20020;-68
2022/11/27 07:13:07;;;;;;;7.38;3.33;;;;;;;5.17;94.26;102109.09;5061542;28;20051;-68
2022/11/27 07:15:33;;;;;;;9.23;3.55;;;;;;;5.16;93.98;102098.66;5052404;28;20017;-69
2022/11/27 07:17:58;;;;;;;8.13;3.35;;;;;;;5.15;94.85;102091.69;5050104;28;20020;-69
2022/11/27 07:20:23;;;;;;;10.07;3.35;;;;;;;5.15;94.70;102086.53;5053147;28;20021;-68
2022/11/27 07:22:48;;;;;;;8.80;3.75;;;;;;;5.12;95.13;102078.59;5055543;28;20121;-68
2022/11/27 07:25:14;;;;;;;11.05;5.07;;;;;;;5.12;95.00;102081.16;5040543;28;20020;-68
2022/11/27 07:27:39;;;;;;;10.05;5.93;;;;;;;5.10;95.68;102081.06;5031774;28;20017;-69
2022/11/27 07:30:05;;;;;;;10.73;5.80;;;;;;;5.09;95.98;102076.69;5047691;28;20100;-69
2022/11/27 07:32:31;;;;;;;9.60;5.60;;;;;;;5.09;95.93;102083.56;5049542;28;20357;-69
2022/11/27 07:34:56;;;;;;;9.30;5.00;;;;;;;5.08;96.22;102071.41;5054403;28;20335;-69
2022/11/27 07:37:21;;;;;;;10.70;3.95;;;;;;;5.07;96.23;102069.63;5060239;28;20017;-69
2022/11/27 07:39:46;;;;;;;10.02;4.68;;;;;;;5.05;96.45;102069.53;5058899;28;20062;-68
2022/11/27 07:42:12;;;;;;;11.40;4.45;;;;;;;5.04;96.67;102063.47;5046514;28;20028;-68
2022/11/27 07:44:37;;;;;;;8.82;4.57;;;;;;;5.04;96.74;102072.91;5047999;28;20029;-69
2022/11/27 07:47:02;;;;;;;10.38;4.35;;;;;;;5.02;96.98;102071.91;5052835;28;20347;-68
2022/11/27 07:49:27;;;;;;;9.07;4.35;;;;;;;5.01;97.17;102058.09;5055123;28;20049;-69
2022/11/27 07:51:53;;;;;;;11.52;4.90;;;;;;;5.00;97.27;102060.59;5062141;28;20020;-68
2022/11/27 07:54:18;;;;;;;13.52;5.15;;;;;;;5.00;97.00;102045.97;5048692;28;20228;-68
2022/11/27 07:56:43;;;;;;;10.98;4.97;;;;;;;4.97;97.48;102047.47;5051784;28;20021;-68
2022/11/27 07:59:08;;;;;;;10.55;4.45;;;;;;;4.95;97.46;102037.03;5050427;28;20220;-69
2022/11/27 08:01:34;;;;;;;9.25;5.00;;;;;;;4.95;97.81;102030.97;5052417;28;20104;-68
2022/11/27 08:03:59;;;;;;;8.60;4.20;;;;;;;4.93;98.05;102025.72;5050758;28;20276;-69
2022/11/27 08:06:26;;;;;;;12.57;5.10;;;;;;;4.92;97.59;102023.03;5059433;28;20020;-68
2022/11/27 08:08:54;;;;;;;11.13;5.10;;;;;;;4.92;97.73;102015.28;5058464;28;20020;-69
2022/11/27 08:11:25;;;;;;;10.98;4.60;;;;;;;4.90;98.27;102020.34;5056063;28;20032;-69
2022/11/27 08:13:55;;;;;;;9.55;4.90;;;;;;;4.91;98.96;102018.63;5049969;28;20067;-69
2022/11/27 08:16:21;;;;;;;11.18;4.95;;;;;;;4.92;98.67;102021.31;5049796;28;20228;-68
2022/11/27 08:18:46;;;;;;;9.98;4.88;;;;;;;4.94;98.87;102022.34;5055233;28;20293;-68
2022/11/27 08:21:11;;;;;;;10.70;4.88;;;;;;;4.94;98.32;102030.09;5049681;28;20017;-69
2022/11/27 08:23:37;;;;;;;10.48;5.32;;;;;;;4.96;98.74;102025.91;5060798;28;20269;-68
2022/11/27 08:26:04;;;;;;;23.35;11.63;;;;;;;4.98;98.93;102024.34;5059135;28;20049;-68
2022/11/27 08:28:30;;;;;;;15.48;7.25;;;;;;;5.00;98.85;102022.72;5052375;28;20024;-68
2022/11/27 08:30:59;;;;;;;13.80;6.97;;;;;;;5.01;98.60;102016.78;5055263;28;20017;-68
2022/11/27 08:33:24;;;;;;;12.73;6.32;;;;;;;5.05;98.63;102025.59;5052433;28;20016;-68
2022/11/27 08:35:50;;;;;;;16.90;10.55;;;;;;;5.07;99.15;102013.69;5053267;28;20137;-68
2022/11/27 08:38:15;;;;;;;13.23;6.95;;;;;;;5.10;99.05;102021.66;5050528;28;20210;-69
2022/11/27 08:40:40;;;;;;;14.27;8.32;;;;;;;5.12;99.48;102022.63;5049018;28;20065;-68
2022/11/27 08:43:06;;;;;;;14.85;5.78;;;;;;;5.14;98.83;102026.22;5049808;28;20021;-68
2022/11/27 08:45:31;;;;;;;13.32;7.10;;;;;;;5.16;99.24;102023.75;5049011;28;20032;-69
2022/11/27 08:47:57;;;;;;;13.90;7.35;;;;;;;5.19;99.01;102013.59;5056976;28;20047;-68
2022/11/27 08:50:23;;;;;;;12.02;6.57;;;;;;;5.22;99.10;102011.19;5052734;28;20024;-69
2022/11/27 08:52:48;;;;;;;13.32;6.32;;;;;;;5.25;98.96;102013.09;5048693;28;20024;-68
2022/11/27 08:55:13;;;;;;;11.95;6.30;;;;;;;5.27;99.08;102016.66;5055691;28;20029;-68
2022/11/27 08:57:39;;;;;;;14.27;7.72;;;;;;;5.30;98.93;102028.09;5045151;28;20131;-69
2022/11/27 09:00:05;;;;;;;10.43;5.63;;;;;;;5.31;98.83;102019.53;5044826;28;20241;-68
2022/11/27 09:02:32;;;;;;;13.07;7.53;;;;;;;5.34;98.70;102018.84;5029899;28;20078;-69
2022/11/27 09:04:57;;;;;;;11.75;5.95;;;;;;;5.36;98.93;102025.91;5045189;28;20037;-68
2022/11/27 09:07:23;;;;;;;13.43;6.40;;;;;;;5.40;98.76;102029.56;5048419;28;20063;-68
2022/11/27 09:09:48;;;;;;;12.68;6.05;;;;;;;5.43;98.97;102015.94;5043626;28;20228;-68
2022/11/27 09:12:13;;;;;;;13.00;6.07;;;;;;;5.45;99.31;102017.84;5049129;28;20033;-69
2022/11/27 09:14:38;;;;;;;13.48;7.03;;;;;;;5.48;98.83;102014.56;5040952;28;20022;-68
2022/11/27 09:17:04;;;;;;;12.93;6.32;;;;;;;5.52;98.86;102019.13;5032633;28;20028;-68
2022/11/27 09:19:29;;;;;;;13.10;6.50;;;;;;;5.54;98.76;102010.66;5057682;28;20353;-69
2022/11/27 09:21:55;;;;;;;13.82;6.22;;;;;;;5.57;98.45;102013.41;5054849;28;20267;-68
2022/11/27 09:24:20;;;;;;;12.65;6.30;;;;;;;5.61;98.32;102018.81;5060530;28;20049;-69
2022/11/27 09:26:45;;;;;;;9.77;5.70;;;;;;;5.63;98.17;102019.78;5053335;28;20025;-69
2022/11/27 09:29:10;;;;;;;13.35;6.72;;;;;;;5.66;98.44;102009.63;5030173;28;20024;-69
2022/11/27 09:31:36;;;;;;;13.07;6.20;;;;;;;5.67;97.81;102007.16;5044576;28;20366;-68
2022/11/27 09:34:02;;;;;;;11.68;6.00;;;;;;;5.69;98.29;102015.00;5042778;28;20051;-69
2022/11/27 09:36:28;;;;;;;14.02;6.82;;;;;;;5.70;98.46;102009.91;5044282;28;20055;-68
2022/11/27 09:38:53;;;;;;;12.95;6.60;;;;;;;5.71;98.27;102022.06;5041143;28;20025;-69
2022/11/27 09:41:45;;;;;;;11.23;5.95;;;;;;;5.73;98.80;102020.44;5043827;28;20032;-69
2022/11/27 09:44:35;;;;;;;12.82;6.80;;;;;;;5.75;98.71;102011.09;5045580;28;20108;-69
2022/11/27 09:47:13;;;;;;;13.65;6.88;;;;;;;5.78;99.42;102013.00;5043690;28;20053;-69
2022/11/27 09:49:46;;;;;;;13.82;6.85;;;;;;;5.80;99.69;102005.34;5057928;28;20016;-69
2022/11/27 09:52:28;;;;;;;12.80;6.10;;;;;;;5.81;99.54;102001.94;5059067;28;20047;-69
2022/11/27 09:55:04;;;;;;;13.65;6.72;;;;;;;5.81;99.69;101997.66;5056402;28;20021;-69
2022/11/27 09:57:35;;;;;;;13.70;6.53;;;;;;;5.84;99.38;101989.22;5055460;28;20458;-65
2022/11/27 10:00:04;;;;;;;12.98;6.68;;;;;;;5.85;99.39;101991.88;5049856;28;20052;-65
2022/11/27 10:02:32;;;;;;;13.80;6.65;;;;;;;5.84;99.10;101992.69;5050741;28;20028;-65
2022/11/27 10:04:59;;;;;;;15.45;7.03;;;;;;;5.86;99.66;101985.00;5055257;28;20013;-65
2022/11/27 10:07:33;;;;;;;14.05;7.03;;;;;;;5.85;99.70;101984.13;5051074;28;20033;-65
2022/11/27 10:10:13;;;;;;;14.30;7.32;;;;;;;5.86;99.40;101977.25;5062429;28;20315;-65
2022/11/27 10:13:02;;;;;;;16.67;7.95;;;;;;;5.88;100.00;101973.06;5054311;28;20175;-65
2022/11/27 10:15:41;;;;;;;13.52;7.55;;;;;;;5.88;99.78;101973.97;5047306;28;20023;-65
2022/11/27 10:18:28;;;;;;;16.40;8.10;;;;;;;5.90;100.00;101968.88;5062484;28;20053;-65
2022/11/27 10:20:59;;;;;;;15.60;8.07;;;;;;;5.90;100.00;101963.72;5059833;28;20033;-65
2022/11/27 10:24:04;;;;;;;15.63;8.20;;;;;;;5.91;100.00;101950.88;5058896;28;20010;-65
2022/11/27 10:26:38;;;;;;;18.13;8.23;;;;;;;5.92;99.83;101949.16;4999873;28;20073;-65
2022/11/27 10:29:33;;;;;;;13.13;7.72;;;;;;;5.95;100.00;101949.34;5055247;28;20045;-65
2022/11/27 10:32:05;;;;;;;14.88;8.25;;;;;;;5.94;100.00;101952.75;5057892;28;20264;-65
2022/11/27 10:34:56;;;;;;;11.52;7.10;;;;;;;5.97;99.74;101947.78;5059035;28;20025;-65
2022/11/27 10:37:35;;;;;;;16.80;8.48;;;;;;;5.98;99.92;101941.81;5053557;28;20048;-69
2022/11/27 10:40:10;;;;;;;12.70;7.72;;;;;;;5.99;99.67;101929.78;5062050;28;20032;-69
2022/11/27 10:42:43;;;;;;;13.55;7.47;;;;;;;5.98;99.58;101928.91;5060853;28;20098;-68
2022/11/27 10:45:20;;;;;;;15.63;8.02;;;;;;;6.00;100.00;101924.69;5066410;28;20067;-69
2022/11/27 10:47:47;;;;;;;13.60;7.43;;;;;;;6.01;99.68;101916.13;5059233;28;20032;-68
2022/11/27 10:50:14;;;;;;;13.70;7.57;;;;;;;6.01;99.59;101923.91;5062447;28;20267;-69
2022/11/27 10:52:56;;;;;;;13.88;7.65;;;;;;;6.03;99.38;101923.97;5059856;28;20148;-70
2022/11/27 10:55:36;;;;;;;13.75;7.50;;;;;;;6.05;99.59;101910.34;5061473;28;20167;-68
2022/11/27 10:58:11;;;;;;;13.25;7.35;;;;;;;6.05;99.94;101912.94;5055472;28;20017;-69
2022/11/27 11:00:36;;;;;;;13.77;7.25;;;;;;;6.06;99.67;101904.34;5061432;28;20023;-69
2022/11/27 11:03:06;;;;;;;13.27;7.03;;;;;;;6.07;99.32;101900.97;5055026;28;20024;-69
2022/11/27 11:05:32;;;;;;;;;;;;;;;6.12;99.13;101900.34;5061353;28;20032;-68
2022/11/27 11:08:04;;;;;;;15.70;7.40;;;;;;;6.10;98.67;101892.50;5057579;28;19904;-69
2022/11/27 11:10:36;;;;;;;23.58;12.00;;;;;;;6.12;99.00;101885.69;5059228;28;20021;-70
2022/11/27 11:13:13;;;;;;;18.13;8.68;;;;;;;6.14;99.33;101896.13;5063325;28;20016;-70
2022/11/27 11:15:57;;;;;;;15.93;8.63;;;;;;;6.16;99.23;101887.66;5046056;28;20096;-70
2022/11/27 11:18:41;;;;;;;15.55;7.85;;;;;;;6.17;98.59;101873.03;5063202;28;20317;-70
2022/11/27 11:21:15;;;;;;;15.23;8.05;;;;;;;6.18;98.63;101873.13;5050330;28;20327;-70
2022/11/27 11:23:40;;;;;;;15.55;7.55;;;;;;;6.19;98.31;101869.72;5058733;28;20036;-70
2022/11/27 11:26:26;;;;;;;14.25;8.45;;;;;;;6.21;98.79;101865.56;5059287;28;20027;-69
2022/11/27 11:28:56;;;;;;;16.20;8.93;;;;;;;6.22;98.56;101856.09;5054757;28;20024;-69
2022/11/27 11:31:29;;;;;;;15.27;7.35;;;;;;;6.23;98.82;101853.59;5065438;28;20063;-69
2022/11/27 11:33:59;;;;;;;15.55;9.82;;;;;;;6.26;98.69;101848.56;5065232;28;20078;-69
2022/11/27 11:36:24;;;;;;;;;;;;;;;6.30;98.21;101841.91;5064737;28;20175;-69
2022/11/27 11:38:51;;;;;;;15.50;7.00;;;;;;;6.30;98.39;101834.13;5047592;28;19901;-69